Time;durP1;ratioP1;P1;durP2;ratioP2;P2;SDS_P1;SDS_P2;PMS_P1;PMS_P2;Temp;Humidity;BMP_temperature;BMP_pressure;BME280_temperature;BME280_humidity;BME280_pressure;Samples;Min_cycle;Max_cycle;Signal;HPM_P1;HPM_P2
2023/10/25 00:01:37;;;;;;;14.90;4.40;;;9.50;99.90;;;;;;5088309;28;20237;-58
2023/10/25 00:04:07;;;;;;;5.20;4.17;;;9.50;99.90;;;;;;5091279;28;20219;-59
2023/10/25 00:06:36;;;;;;;8.67;4.40;;;9.50;99.90;;;;;;5092091;28;20215;-59
2023/10/25 00:09:05;;;;;;;13.87;4.97;;;9.50;99.90;;;;;;5090761;28;20223;-59
2023/10/25 00:11:33;;;;;;;8.80;4.23;;;9.50;99.90;;;;;;5087032;28;20344;-58
2023/10/25 00:14:03;;;;;;;6.20;4.30;;;9.60;99.90;;;;;;5084396;28;20212;-58
2023/10/25 00:16:31;;;;;;;8.60;4.30;;;9.60;99.90;;;;;;5086009;28;20550;-58
2023/10/25 00:19:00;;;;;;;5.97;4.40;;;9.60;99.90;;;;;;5084171;28;20196;-58
2023/10/25 00:21:29;;;;;;;18.70;5.60;;;9.70;99.90;;;;;;5088843;28;20313;-59
2023/10/25 00:23:57;;;;;;;6.90;3.77;;;9.70;99.90;;;;;;5085415;28;20577;-58
2023/10/25 00:26:25;;;;;;;14.10;4.73;;;9.70;99.90;;;;;;5091117;28;20222;-59
2023/10/25 00:28:54;;;;;;;5.17;4.67;;;9.70;99.90;;;;;;5091947;28;20250;-58
2023/10/25 00:31:22;;;;;;;8.60;4.40;;;9.70;99.90;;;;;;5090117;28;20649;-58
2023/10/25 00:33:50;;;;;;;14.80;4.47;;;9.70;99.90;;;;;;5088507;28;20608;-58
2023/10/25 00:36:18;;;;;;;5.10;4.30;;;9.80;99.90;;;;;;5091823;28;20210;-58
2023/10/25 00:38:48;;;;;;;9.00;4.27;;;9.80;99.90;;;;;;5076881;28;20880;-58
2023/10/25 00:41:16;;;;;;;9.70;4.60;;;9.90;99.90;;;;;;5069588;28;20215;-59
2023/10/25 00:43:44;;;;;;;5.07;4.10;;;9.90;99.90;;;;;;5070710;28;20306;-58
2023/10/25 00:46:15;;;;;;;7.43;4.20;;;9.90;99.90;;;;;;5064044;28;20651;-59
2023/10/25 00:48:45;;;;;;;9.40;4.17;;;10.00;99.90;;;;;;5072684;28;20640;-58
2023/10/25 00:51:15;;;;;;;9.00;4.17;;;10.00;99.90;;;;;;5068544;28;20223;-58
2023/10/25 00:53:50;;;;;;;5.73;3.93;;;10.00;99.90;;;;;;5070148;28;20219;-58
2023/10/25 00:56:18;;;;;;;8.97;4.60;;;10.00;99.90;;;;;;5077387;28;20223;-58
2023/10/25 00:58:50;;;;;;;10.77;3.97;;;10.00;99.90;;;;;;5064018;28;20230;-58
2023/10/25 01:01:20;;;;;;;10.47;4.40;;;10.00;99.90;;;;;;5064435;28;20211;-59
2023/10/25 01:03:49;;;;;;;11.30;4.23;;;10.00;99.90;;;;;;5086775;28;20762;-59
2023/10/25 01:06:18;;;;;;;5.93;4.27;;;10.00;99.90;;;;;;5083968;28;20207;-59
2023/10/25 01:08:48;;;;;;;8.67;4.00;;;10.00;99.90;;;;;;5083745;28;20223;-58
2023/10/25 01:11:16;;;;;;;9.20;4.03;;;10.00;99.90;;;;;;5079071;28;20219;-58
2023/10/25 01:13:45;;;;;;;7.23;4.37;;;10.10;99.90;;;;;;5086633;28;21078;-58
2023/10/25 01:16:13;;;;;;;5.27;4.00;;;10.10;99.90;;;;;;5089862;28;20191;-59
2023/10/25 01:18:41;;;;;;;8.37;3.77;;;10.10;99.90;;;;;;5088516;28;20740;-59
2023/10/25 01:21:10;;;;;;;8.23;4.13;;;10.10;99.90;;;;;;5088445;28;20226;-59
2023/10/25 01:23:39;;;;;;;6.33;4.07;;;10.10;99.90;;;;;;5086679;28;20302;-59
2023/10/25 01:26:08;;;;;;;7.73;4.20;;;10.20;99.90;;;;;;5085852;28;20208;-58
2023/10/25 01:28:36;;;;;;;9.70;3.70;;;10.20;99.90;;;;;;5080826;28;20231;-59
2023/10/25 01:31:06;;;;;;;11.33;4.10;;;10.20;99.90;;;;;;5082826;28;20195;-58
2023/10/25 01:33:34;;;;;;;7.77;3.83;;;10.30;99.90;;;;;;5071531;28;20213;-58
2023/10/25 01:36:03;;;;;;;4.67;3.50;;;10.30;99.90;;;;;;5084103;28;20556;-58
2023/10/25 01:38:31;;;;;;;9.63;3.77;;;10.30;99.90;;;;;;5090674;28;20220;-58
2023/10/25 01:41:00;;;;;;;10.17;4.00;;;10.30;99.90;;;;;;5077248;28;20326;-59
2023/10/25 01:43:29;;;;;;;10.77;3.70;;;10.30;99.90;;;;;;5062634;28;20196;-59
2023/10/25 01:45:57;;;;;;;5.80;4.23;;;10.20;99.90;;;;;;5085538;28;20184;-58
2023/10/25 01:48:25;;;;;;;5.80;4.10;;;10.20;99.90;;;;;;5085892;28;20222;-58
2023/10/25 01:50:54;;;;;;;4.50;3.60;;;10.20;99.90;;;;;;5077643;28;20270;-58
2023/10/25 01:53:22;;;;;;;9.10;3.90;;;10.20;99.90;;;;;;5085959;28;20247;-59
2023/10/25 01:55:50;;;;;;;5.27;3.90;;;10.20;99.90;;;;;;5087835;28;20226;-59
2023/10/25 01:58:20;;;;;;;5.90;3.83;;;10.20;99.90;;;;;;5079395;28;20194;-59
2023/10/25 02:00:48;;;;;;;7.90;4.07;;;10.20;99.90;;;;;;5080550;28;20226;-59
2023/10/25 02:03:17;;;;;;;9.43;4.27;;;10.20;99.90;;;;;;5086432;28;20215;-58
2023/10/25 02:05:47;;;;;;;4.13;3.73;;;10.20;99.90;;;;;;5086550;28;20638;-58
2023/10/25 02:08:15;;;;;;;6.00;3.80;;;10.20;99.90;;;;;;5079752;28;20220;-59
2023/10/25 02:10:44;;;;;;;7.03;3.53;;;10.20;99.90;;;;;;5082430;28;20227;-59
2023/10/25 02:13:12;;;;;;;6.70;3.40;;;10.20;99.90;;;;;;5082573;28;20199;-59
2023/10/25 02:15:42;;;;;;;6.60;3.70;;;10.20;99.90;;;;;;5094293;28;20304;-59
2023/10/25 02:18:10;;;;;;;6.30;3.53;;;10.20;99.90;;;;;;5083135;28;20211;-59
2023/10/25 02:20:38;;;;;;;11.87;3.53;;;10.30;99.90;;;;;;5092224;28;20295;-58
2023/10/25 02:23:06;;;;;;;7.17;3.17;;;10.30;99.90;;;;;;5083753;28;20362;-59
2023/10/25 02:25:35;;;;;;;4.83;3.10;;;10.30;99.90;;;;;;5092342;28;20202;-58
2023/10/25 02:28:03;;;;;;;8.20;3.50;;;10.30;99.90;;;;;;5089478;28;20933;-58
2023/10/25 02:30:31;;;;;;;10.00;3.27;;;10.30;99.90;;;;;;5082300;28;20221;-58
2023/10/25 02:33:01;;;;;;;8.17;2.97;;;10.30;99.90;;;;;;5081848;28;20681;-58
2023/10/25 02:35:29;;;;;;;3.30;2.93;;;10.40;99.90;;;;;;5085879;28;20281;-58
2023/10/25 02:37:57;;;;;;;3.60;2.70;;;10.40;99.90;;;;;;5086995;28;20612;-58
2023/10/25 02:40:25;;;;;;;7.97;3.00;;;10.40;99.90;;;;;;5084237;28;20199;-58
2023/10/25 02:42:53;;;;;;;6.60;3.17;;;10.30;99.90;;;;;;5083920;28;20192;-59
2023/10/25 02:45:22;;;;;;;6.97;3.23;;;10.40;99.90;;;;;;5087172;28;20215;-58
2023/10/25 02:47:50;;;;;;;2.90;2.70;;;10.30;99.90;;;;;;5092409;28;20347;-59
2023/10/25 02:50:20;;;;;;;3.37;2.90;;;10.30;99.90;;;;;;5088890;28;20224;-59
2023/10/25 02:52:48;;;;;;;6.53;3.20;;;10.40;99.90;;;;;;5070684;28;20224;-58
2023/10/25 02:55:16;;;;;;;7.67;3.53;;;10.40;99.90;;;;;;5065667;28;20300;-58
2023/10/25 02:57:45;;;;;;;3.70;2.80;;;10.40;99.90;;;;;;5092191;28;20211;-59
2023/10/25 03:00:14;;;;;;;9.57;3.07;;;10.30;99.90;;;;;;5069923;28;20368;-59
2023/10/25 03:02:42;;;;;;;6.13;3.00;;;10.30;99.90;;;;;;5092643;28;20219;-58
2023/10/25 03:05:10;;;;;;;5.70;2.80;;;10.30;99.90;;;;;;5091567;28;20219;-58
2023/10/25 03:07:40;;;;;;;3.67;3.07;;;10.30;99.90;;;;;;5093128;28;20319;-59
2023/10/25 03:10:09;;;;;;;8.40;3.37;;;10.30;99.90;;;;;;5087571;28;20203;-59
2023/10/25 03:12:37;;;;;;;5.90;3.00;;;10.30;99.90;;;;;;5092969;28;20221;-59
2023/10/25 03:15:06;;;;;;;5.10;2.87;;;10.30;99.90;;;;;;5088321;28;20211;-59
2023/10/25 03:17:35;;;;;;;5.03;2.53;;;10.30;99.90;;;;;;5090720;28;20306;-58
2023/10/25 03:20:04;;;;;;;8.20;2.83;;;10.30;99.90;;;;;;5091674;28;20279;-58
2023/10/25 03:22:33;;;;;;;7.13;3.13;;;10.20;99.90;;;;;;5086105;28;20187;-59
2023/10/25 03:25:03;;;;;;;2.90;2.57;;;10.30;99.90;;;;;;5082170;28;20204;-58
2023/10/25 03:27:31;;;;;;;6.50;3.10;;;10.20;99.90;;;;;;5089668;28;20728;-58
2023/10/25 03:29:59;;;;;;;4.90;2.93;;;10.20;99.90;;;;;;5088576;28;20215;-58
2023/10/25 03:32:28;;;;;;;6.43;2.80;;;10.20;99.90;;;;;;5090276;28;20228;-58
2023/10/25 03:34:56;;;;;;;6.07;2.50;;;10.20;99.90;;;;;;5087249;28;20210;-59
2023/10/25 03:37:24;;;;;;;7.60;2.70;;;10.20;99.90;;;;;;5094127;28;20199;-59
2023/10/25 03:39:52;;;;;;;5.13;2.80;;;10.20;99.90;;;;;;5086728;28;20194;-58
2023/10/25 03:42:22;;;;;;;2.87;2.40;;;10.10;99.90;;;;;;5086501;28;20218;-58
2023/10/25 03:44:50;;;;;;;4.53;2.60;;;10.20;99.90;;;;;;5087611;28;20224;-58
2023/10/25 03:47:18;;;;;;;7.80;2.80;;;10.20;99.90;;;;;;5086527;28;20665;-58
2023/10/25 03:49:46;;;;;;;6.80;2.87;;;10.20;99.90;;;;;;5080223;28;20231;-58
2023/10/25 03:52:15;;;;;;;4.47;2.60;;;10.20;99.90;;;;;;5087555;28;20202;-58
2023/10/25 03:54:43;;;;;;;5.30;2.90;;;10.20;99.90;;;;;;5086757;28;20666;-58
2023/10/25 03:57:11;;;;;;;4.97;2.70;;;10.20;99.90;;;;;;5088716;28;20689;-58
2023/10/25 03:59:41;;;;;;;7.90;3.07;;;10.20;99.90;;;;;;5087943;28;20211;-58
2023/10/25 04:02:09;;;;;;;4.60;3.00;;;10.20;99.90;;;;;;5082232;28;20561;-58
2023/10/25 04:04:38;;;;;;;5.73;3.47;;;10.20;99.90;;;;;;5083680;28;20227;-59
2023/10/25 04:07:06;;;;;;;6.30;3.20;;;10.20;99.90;;;;;;5088064;28;20204;-59
2023/10/25 04:09:34;;;;;;;4.97;2.77;;;10.30;99.90;;;;;;5078376;28;20212;-58
2023/10/25 04:12:02;;;;;;;5.07;3.10;;;10.30;99.90;;;;;;5077616;28;20703;-58
2023/10/25 04:14:31;;;;;;;4.30;3.17;;;10.30;99.90;;;;;;5082610;28;20228;-58
2023/10/25 04:17:00;;;;;;;3.20;3.00;;;10.30;99.90;;;;;;5082978;28;20583;-58
2023/10/25 04:19:29;;;;;;;6.27;3.20;;;10.30;99.90;;;;;;5094044;28;20210;-57
2023/10/25 04:21:57;;;;;;;3.50;2.83;;;10.30;99.90;;;;;;5087173;28;20195;-59
2023/10/25 04:24:25;;;;;;;4.43;2.90;;;10.30;99.90;;;;;;5083707;28;20272;-59
2023/10/25 04:26:53;;;;;;;5.53;3.20;;;10.30;99.90;;;;;;5084009;28;20228;-58
2023/10/25 04:29:22;;;;;;;7.20;4.13;;;10.30;99.90;;;;;;5080832;28;20223;-59
2023/10/25 04:31:50;;;;;;;6.10;3.00;;;10.40;99.90;;;;;;5078754;28;20224;-58
2023/10/25 04:34:19;;;;;;;5.80;3.03;;;10.40;99.90;;;;;;5083199;28;20194;-58
2023/10/25 04:36:48;;;;;;;4.60;3.17;;;10.40;99.90;;;;;;5087851;28;20238;-58
2023/10/25 04:39:16;;;;;;;3.97;2.60;;;10.40;99.90;;;;;;5080278;28;20218;-58
2023/10/25 04:41:44;;;;;;;3.23;2.57;;;10.40;99.90;;;;;;5082710;28;20290;-58
2023/10/25 04:44:13;;;;;;;11.70;4.13;;;10.40;99.90;;;;;;5079949;28;20255;-59
2023/10/25 04:46:41;;;;;;;7.67;2.87;;;10.40;99.90;;;;;;5084229;28;20534;-58
2023/10/25 04:49:09;;;;;;;6.97;2.80;;;10.40;99.90;;;;;;5088973;28;20272;-58
2023/10/25 04:51:39;;;;;;;11.90;2.83;;;10.50;99.90;;;;;;5089608;28;20984;-58
2023/10/25 04:54:07;;;;;;;4.60;3.10;;;10.50;99.90;;;;;;5087085;28;20215;-58
2023/10/25 04:56:36;;;;;;;4.67;2.73;;;10.50;99.90;;;;;;5089138;28;20306;-58
2023/10/25 04:59:04;;;;;;;17.13;3.00;;;10.50;99.90;;;;;;5070008;28;20228;-58
2023/10/25 05:01:32;;;;;;;4.17;2.50;;;10.60;99.90;;;;;;5088820;28;20226;-58
2023/10/25 05:04:03;;;;;;;5.23;2.83;;;10.60;99.90;;;;;;5086321;28;20269;-58
2023/10/25 05:06:32;;;;;;;6.43;2.67;;;10.60;99.90;;;;;;5081576;28;21018;-58
2023/10/25 05:09:02;;;;;;;5.57;2.70;;;10.60;99.90;;;;;;5079274;28;20219;-58
2023/10/25 05:11:35;;;;;;;4.60;2.47;;;10.60;99.90;;;;;;5090167;28;20216;-59
2023/10/25 05:14:04;;;;;;;7.70;2.40;;;10.50;99.90;;;;;;5088017;28;20289;-58
2023/10/25 05:16:33;;;;;;;4.97;2.87;;;10.50;99.90;;;;;;5090254;28;20202;-59
2023/10/25 05:19:01;;;;;;;5.37;2.43;;;10.50;99.90;;;;;;5091209;28;20180;-58
2023/10/25 05:21:35;;;;;;;4.63;2.60;;;10.40;99.90;;;;;;5079226;28;20216;-59
2023/10/25 05:24:08;;;;;;;9.03;2.90;;;10.40;99.90;;;;;;5083149;28;20231;-59
2023/10/25 05:26:36;;;;;;;7.60;2.80;;;10.30;99.90;;;;;;5086443;28;20223;-59
2023/10/25 05:29:05;;;;;;;3.67;2.70;;;10.30;99.90;;;;;;5080653;28;20965;-59
2023/10/25 05:31:35;;;;;;;3.27;2.30;;;10.30;99.90;;;;;;5080772;28;20554;-59
2023/10/25 05:34:05;;;;;;;3.10;2.80;;;10.30;99.90;;;;;;5083119;28;20654;-60
2023/10/25 05:36:33;;;;;;;2.60;2.40;;;10.30;99.90;;;;;;5087415;28;20222;-59
2023/10/25 05:39:02;;;;;;;3.90;2.57;;;10.30;99.90;;;;;;5069974;28;20231;-59
2023/10/25 05:41:36;;;;;;;2.50;2.40;;;10.20;99.90;;;;;;5055808;28;20299;-59
2023/10/25 05:44:10;;;;;;;4.67;2.43;;;10.30;99.90;;;;;;5070401;28;20230;-59
2023/10/25 05:46:38;;;;;;;5.80;2.40;;;10.30;99.90;;;;;;5065403;28;20187;-58
2023/10/25 05:49:07;;;;;;;4.50;2.47;;;10.20;99.90;;;;;;5065475;28;20204;-59
2023/10/25 05:51:36;;;;;;;4.20;2.80;;;10.20;99.90;;;;;;5053185;28;20618;-59
2023/10/25 05:54:05;;;;;;;5.13;2.97;;;10.20;99.90;;;;;;5065117;28;20215;-59
2023/10/25 05:56:36;;;;;;;4.60;3.00;;;10.20;99.90;;;;;;5074455;28;20211;-59
2023/10/25 05:59:05;;;;;;;7.83;3.10;;;10.10;99.90;;;;;;5081876;28;20210;-59
2023/10/25 06:01:44;;;;;;;3.27;2.80;;;10.10;99.90;;;;;;5087030;28;20258;-59
2023/10/25 06:04:13;;;;;;;10.80;4.23;;;10.10;99.90;;;;;;5081836;28;20623;-59
2023/10/25 06:06:44;;;;;;;5.33;3.00;;;10.10;99.90;;;;;;5086689;28;20235;-59
2023/10/25 06:09:13;;;;;;;4.17;3.30;;;10.10;99.90;;;;;;5087520;28;20725;-59
2023/10/25 06:11:43;;;;;;;9.37;3.10;;;10.00;99.90;;;;;;5089134;28;20588;-59
2023/10/25 06:14:12;;;;;;;6.47;3.03;;;10.00;99.90;;;;;;5086264;28;20231;-59
2023/10/25 06:16:40;;;;;;;4.53;2.80;;;10.00;99.90;;;;;;5083562;28;20658;-59
2023/10/25 06:19:08;;;;;;;7.10;3.13;;;10.00;99.90;;;;;;5086590;28;20188;-59
2023/10/25 06:21:37;;;;;;;6.80;2.97;;;10.00;99.90;;;;;;5089815;28;20264;-59
2023/10/25 06:24:05;;;;;;;6.27;2.70;;;10.00;99.90;;;;;;5086870;28;20589;-59
2023/10/25 06:26:34;;;;;;;7.73;3.40;;;10.00;99.90;;;;;;5088421;28;20629;-59
2023/10/25 06:29:03;;;;;;;7.40;3.37;;;9.90;99.90;;;;;;5090536;28;20219;-58
2023/10/25 06:31:31;;;;;;;3.80;3.50;;;9.90;99.90;;;;;;5089156;28;20641;-59
2023/10/25 06:34:00;;;;;;;7.47;3.60;;;10.00;99.90;;;;;;5095725;28;20199;-59
2023/10/25 06:36:29;;;;;;;10.13;3.53;;;10.00;99.90;;;;;;5088630;28;20276;-59
2023/10/25 06:38:57;;;;;;;4.50;3.63;;;10.00;99.90;;;;;;5091781;28;20219;-59
2023/10/25 06:41:26;;;;;;;10.43;4.10;;;10.10;99.90;;;;;;5089132;28;20230;-59
2023/10/25 06:43:55;;;;;;;6.43;3.83;;;10.00;99.90;;;;;;5091525;28;20246;-59
2023/10/25 06:46:25;;;;;;;8.33;3.83;;;10.00;99.90;;;;;;5090052;28;20245;-57
2023/10/25 06:48:56;;;;;;;7.87;3.70;;;10.00;99.90;;;;;;5085716;28;20219;-59
2023/10/25 06:51:25;;;;;;;8.20;3.90;;;10.10;99.90;;;;;;5091870;28;20309;-59
2023/10/25 06:53:53;;;;;;;4.73;3.83;;;10.10;99.90;;;;;;5091520;28;20223;-59
2023/10/25 06:56:22;;;;;;;8.77;3.37;;;10.10;99.90;;;;;;5088262;28;20681;-58
2023/10/25 06:58:51;;;;;;;11.63;3.77;;;10.10;99.90;;;;;;5083371;28;20227;-59
2023/10/25 07:01:24;;;;;;;12.17;4.30;;;10.10;99.90;;;;;;5085724;28;20267;-59
2023/10/25 07:03:56;;;;;;;8.37;4.07;;;10.20;99.90;;;;;;5086076;28;20219;-59
2023/10/25 07:06:26;;;;;;;10.20;4.40;;;10.10;99.90;;;;;;5086504;28;20222;-58
2023/10/25 07:08:54;;;;;;;10.67;4.40;;;10.10;99.90;;;;;;5080916;28;20216;-59
2023/10/25 07:11:23;;;;;;;12.57;4.60;;;10.10;99.90;;;;;;5086019;28;20223;-59
2023/10/25 07:13:52;;;;;;;9.70;4.17;;;10.10;99.90;;;;;;5082504;28;20296;-59
2023/10/25 07:16:20;;;;;;;7.70;4.27;;;10.10;99.90;;;;;;5083496;28;20210;-59
2023/10/25 07:18:50;;;;;;;8.23;4.20;;;10.10;99.90;;;;;;5085859;28;20231;-59
2023/10/25 07:21:18;;;;;;;6.03;4.13;;;10.10;99.90;;;;;;5087715;28;20226;-59
2023/10/25 07:23:47;;;;;;;8.23;4.30;;;10.10;99.90;;;;;;5077370;28;20219;-59
2023/10/25 07:26:15;;;;;;;13.70;4.57;;;10.10;99.90;;;;;;5091017;28;20225;-59
2023/10/25 07:28:43;;;;;;;6.40;4.50;;;10.10;99.90;;;;;;5087339;28;20227;-59
2023/10/25 07:31:11;;;;;;;10.40;4.63;;;10.10;99.90;;;;;;5087571;28;20215;-58
2023/10/25 07:33:40;;;;;;;11.30;5.07;;;10.10;99.90;;;;;;5065531;28;20590;-59
2023/10/25 07:40:09;;;;;;;10.17;4.83;;;10.10;99.90;;;;;;5062808;28;20219;-58
2023/10/25 07:42:37;;;;;;;8.47;4.70;;;10.10;99.90;;;;;;5048585;28;20229;-58
2023/10/25 07:45:06;;;;;;;5.30;4.47;;;10.10;99.90;;;;;;5061986;28;20215;-59
2023/10/25 07:47:34;;;;;;;5.77;4.87;;;10.10;99.90;;;;;;5061720;28;20346;-59
2023/10/25 07:50:05;;;;;;;8.90;5.20;;;10.10;99.90;;;;;;5085450;28;20230;-59
2023/10/25 07:52:36;;;;;;;10.77;4.57;;;10.20;99.90;;;;;;5069235;28;20196;-58
2023/10/25 07:55:05;;;;;;;10.03;5.10;;;10.10;99.90;;;;;;5064447;28;20193;-59
2023/10/25 07:57:55;;;;;;;7.87;4.77;;;10.20;99.90;;;;;;5087249;28;20211;-59
2023/10/25 08:00:26;;;;;;;4.80;4.40;;;10.20;99.90;;;;;;5085557;28;20219;-59
2023/10/25 08:02:54;;;;;;;5.87;4.37;;;10.20;99.90;;;;;;5081669;28;20293;-59
2023/10/25 08:05:42;;;;;;;8.20;4.57;;;10.20;99.90;;;;;;5082222;28;20264;-59
2023/10/25 08:08:10;;;;;;;6.23;4.37;;;10.20;99.90;;;;;;5085660;28;20215;-59
2023/10/25 08:10:38;;;;;;;7.70;4.67;;;10.20;99.90;;;;;;5085046;28;20545;-59
2023/10/25 08:13:08;;;;;;;6.07;4.37;;;10.30;99.90;;;;;;5086430;28;20191;-59
2023/10/25 08:15:36;;;;;;;15.53;4.90;;;10.20;99.90;;;;;;5085964;28;20215;-59
2023/10/25 08:18:06;;;;;;;7.40;4.97;;;10.20;99.90;;;;;;5087053;28;20284;-59
2023/10/25 08:20:36;;;;;;;7.47;5.10;;;10.20;99.90;;;;;;5083221;28;20211;-59
2023/10/25 08:23:05;;;;;;;4.90;4.37;;;10.20;99.90;;;;;;5081667;28;20211;-59
2023/10/25 08:25:35;;;;;;;6.27;4.53;;;10.20;99.90;;;;;;5084976;28;20188;-59
2023/10/25 08:28:03;;;;;;;7.30;4.50;;;10.20;99.90;;;;;;5087881;28;20210;-59
2023/10/25 08:30:33;;;;;;;9.17;4.90;;;10.20;99.90;;;;;;5087544;28;20937;-59
2023/10/25 08:33:01;;;;;;;6.40;4.50;;;10.20;99.90;;;;;;5087441;28;20215;-59
2023/10/25 08:35:29;;;;;;;6.30;4.23;;;10.30;99.90;;;;;;5078391;28;20220;-59
2023/10/25 08:37:57;;;;;;;6.43;4.60;;;10.30;99.90;;;;;;5068011;28;20230;-59
2023/10/25 08:40:26;;;;;;;6.63;4.93;;;10.40;99.90;;;;;;5086962;28;20214;-58
2023/10/25 08:42:54;;;;;;;9.00;4.80;;;10.50;99.90;;;;;;5083337;28;20198;-59
2023/10/25 08:45:24;;;;;;;6.67;4.87;;;10.50;99.90;;;;;;5083955;28;20220;-58
2023/10/25 08:47:54;;;;;;;6.20;4.97;;;10.40;99.90;;;;;;5084860;28;20225;-59
2023/10/25 08:50:23;;;;;;;5.43;4.93;;;10.40;99.90;;;;;;5083295;28;20223;-58
2023/10/25 08:52:52;;;;;;;6.07;4.87;;;10.50;99.90;;;;;;5086080;28;20249;-59
2023/10/25 08:55:21;;;;;;;5.63;5.13;;;10.50;99.90;;;;;;5082911;28;20192;-58
2023/10/25 08:57:54;;;;;;;9.70;5.23;;;10.50;99.90;;;;;;5083190;28;20229;-59
2023/10/25 09:00:23;;;;;;;7.77;5.13;;;10.60;99.90;;;;;;5082764;28;20215;-58
2023/10/25 09:03:04;;;;;;;9.90;5.50;;;10.60;99.90;;;;;;5082941;28;20680;-58
2023/10/25 09:05:41;;;;;;;6.90;4.90;;;10.50;99.90;;;;;;5076427;28;20590;-59
2023/10/25 09:08:16;;;;;;;5.43;4.90;;;10.60;99.90;;;;;;5077847;28;20215;-59
2023/10/25 09:14:09;;;;;;;5.07;4.67;;;10.50;99.90;;;;;;5083777;28;20728;-58
2023/10/25 09:16:41;;;;;;;5.90;5.00;;;10.50;99.90;;;;;;5079247;28;20188;-59
2023/10/25 09:19:11;;;;;;;4.90;4.40;;;10.50;99.90;;;;;;5084713;28;20192;-59
2023/10/25 09:21:39;;;;;;;5.60;4.50;;;10.50;99.90;;;;;;5076265;28;20223;-59
2023/10/25 09:24:09;;;;;;;6.33;4.20;;;10.50;99.90;;;;;;5083036;28;20528;-59
2023/10/25 09:26:39;;;;;;;6.30;4.40;;;10.50;99.90;;;;;;5086070;28;20219;-59
2023/10/25 09:29:11;;;;;;;6.73;4.53;;;10.50;99.90;;;;;;5088036;28;20589;-59
2023/10/25 09:31:39;;;;;;;4.77;4.13;;;10.50;99.90;;;;;;5080198;28;20227;-59
2023/10/25 09:34:28;;;;;;;6.03;4.37;;;10.50;99.90;;;;;;5080928;28;20241;-59
2023/10/25 09:36:57;;;;;;;7.20;4.33;;;10.60;99.90;;;;;;5083817;28;20222;-59
2023/10/25 09:39:25;;;;;;;5.03;4.67;;;10.50;99.90;;;;;;5083807;28;20215;-59
2023/10/25 09:41:54;;;;;;;5.17;4.67;;;10.60;99.90;;;;;;5086268;28;20254;-59
2023/10/25 09:44:28;;;;;;;4.80;4.40;;;10.60;99.90;;;;;;5083222;28;20207;-59
2023/10/25 09:46:58;;;;;;;5.13;4.50;;;10.60;99.90;;;;;;5075058;28;20214;-59
2023/10/25 09:49:31;;;;;;;4.50;4.20;;;10.70;99.90;;;;;;5091808;28;20518;-59
2023/10/25 09:52:07;;;;;;;5.40;4.83;;;10.80;99.90;;;;;;5088551;28;20206;-59
2023/10/25 09:54:36;;;;;;;5.50;5.00;;;10.90;99.90;;;;;;5081164;28;20218;-59
2023/10/25 09:57:06;;;;;;;4.90;4.50;;;10.90;99.90;;;;;;5088101;28;20234;-59
2023/10/25 09:59:34;;;;;;;4.67;4.27;;;11.00;99.90;;;;;;5084065;28;20220;-59
2023/10/25 10:02:05;;;;;;;6.33;5.20;;;10.90;99.90;;;;;;5080018;28;20230;-59
2023/10/25 10:04:44;;;;;;;6.23;4.50;;;10.90;99.90;;;;;;5089591;28;20205;-59
2023/10/25 10:07:25;;;;;;;5.03;4.63;;;10.90;99.90;;;;;;5057556;28;20333;-59
2023/10/25 10:09:58;;;;;;;5.43;5.03;;;10.90;99.90;;;;;;5060479;28;20212;-58
2023/10/25 10:12:26;;;;;;;7.00;5.20;;;10.90;99.90;;;;;;5081560;28;20219;-58
2023/10/25 10:14:54;;;;;;;5.80;5.13;;;10.90;99.90;;;;;;5068394;28;20578;-58
2023/10/25 10:17:23;;;;;;;5.70;5.20;;;11.00;99.90;;;;;;5069299;28;20254;-59
2023/10/25 10:19:57;;;;;;;6.80;5.03;;;11.00;99.90;;;;;;5060869;28;20247;-58
2023/10/25 10:22:26;;;;;;;6.17;4.93;;;11.00;99.90;;;;;;5066719;28;20184;-58
2023/10/25 10:24:56;;;;;;;9.07;5.60;;;10.90;99.90;;;;;;5072260;28;20676;-59
2023/10/25 10:27:26;;;;;;;7.87;5.50;;;10.90;99.90;;;;;;5086076;28;20211;-58
2023/10/25 10:29:55;;;;;;;6.60;6.00;;;11.00;99.90;;;;;;5087289;28;20692;-59
2023/10/25 10:32:28;;;;;;;9.23;6.10;;;11.00;99.90;;;;;;5086109;28;20220;-58
2023/10/25 10:34:59;;;;;;;6.73;6.13;;;11.10;99.90;;;;;;5088620;28;20527;-58
2023/10/25 10:37:29;;;;;;;6.17;5.70;;;11.20;99.90;;;;;;5083122;28;20192;-58
2023/10/25 10:40:13;;;;;;;7.13;5.57;;;11.20;99.90;;;;;;5088472;28;20215;-58
2023/10/25 10:42:42;;;;;;;9.87;6.30;;;11.30;99.90;;;;;;5085214;28;20234;-58
2023/10/25 10:45:19;;;;;;;6.60;5.90;;;11.40;99.90;;;;;;5087905;28;20222;-58
2023/10/25 10:47:52;;;;;;;8.40;6.50;;;11.40;99.90;;;;;;5086581;28;20256;-58
2023/10/25 10:50:24;;;;;;;7.13;5.77;;;11.40;99.90;;;;;;5089054;28;20599;-58
2023/10/25 10:52:53;;;;;;;7.10;6.27;;;11.50;99.90;;;;;;5086681;28;20227;-58
2023/10/25 10:55:23;;;;;;;6.10;5.50;;;11.60;99.90;;;;;;5091357;28;20278;-58
2023/10/25 10:57:52;;;;;;;6.10;5.60;;;11.60;99.90;;;;;;5088281;28;20314;-58
2023/10/25 11:00:25;;;;;;;5.93;5.43;;;11.60;99.90;;;;;;5091914;28;20576;-58
2023/10/25 11:02:54;;;;;;;5.97;5.40;;;11.70;99.90;;;;;;5090760;28;20271;-58
2023/10/25 11:05:24;;;;;;;9.03;5.70;;;11.80;99.90;;;;;;5089947;28;20593;-58
2023/10/25 11:07:54;;;;;;;5.67;5.07;;;11.80;99.90;;;;;;5085531;28;20626;-58
2023/10/25 11:10:22;;;;;;;6.17;5.53;;;11.80;99.90;;;;;;5086524;28;20192;-58
2023/10/25 11:12:58;;;;;;;5.93;5.43;;;11.80;99.90;;;;;;5089667;28;20219;-58
2023/10/25 11:15:30;;;;;;;6.00;5.37;;;11.80;99.90;;;;;;5090232;28;20226;-58
2023/10/25 11:17:58;;;;;;;7.00;5.90;;;11.80;99.90;;;;;;5088712;28;20223;-58
2023/10/25 11:20:28;;;;;;;6.10;5.50;;;11.80;99.90;;;;;;5088514;28;20226;-58
2023/10/25 11:22:57;;;;;;;6.37;5.77;;;11.80;99.90;;;;;;5088527;28;20558;-58
2023/10/25 11:25:29;;;;;;;6.53;5.93;;;11.70;99.90;;;;;;5092826;28;20188;-58
2023/10/25 11:27:58;;;;;;;6.70;6.00;;;11.70;99.90;;;;;;5082946;28;20191;-58
2023/10/25 11:30:27;;;;;;;6.53;6.00;;;11.70;99.90;;;;;;5084008;28;20222;-58
2023/10/25 11:32:55;;;;;;;6.43;5.90;;;11.80;99.90;;;;;;5085844;28;20712;-58
2023/10/25 11:35:24;;;;;;;9.17;5.53;;;11.80;99.90;;;;;;5084712;28;20212;-58
2023/10/25 11:37:54;;;;;;;6.50;6.00;;;11.80;99.90;;;;;;5083224;28;20951;-57
2023/10/25 11:40:35;;;;;;;6.87;6.20;;;11.80;99.90;;;;;;5083454;28;20230;-58
2023/10/25 11:43:06;;;;;;;6.97;6.27;;;11.80;99.90;;;;;;5083949;28;20301;-58
2023/10/25 11:45:35;;;;;;;7.50;6.13;;;11.90;99.90;;;;;;5085031;28;20230;-58
2023/10/25 11:48:04;;;;;;;8.00;6.70;;;11.80;99.90;;;;;;5082821;28;20240;-58
2023/10/25 11:50:33;;;;;;;7.63;6.70;;;11.80;99.90;;;;;;5080029;28;20278;-58
2023/10/25 11:53:07;;;;;;;7.67;6.87;;;11.70;99.90;;;;;;5085118;28;20234;-58
2023/10/25 11:55:35;;;;;;;7.00;6.40;;;11.80;99.90;;;;;;5083157;28;20278;-58
2023/10/25 11:58:04;;;;;;;7.83;6.67;;;11.90;99.90;;;;;;5081586;28;20183;-57
2023/10/25 12:00:33;;;;;;;6.20;5.70;;;12.00;99.90;;;;;;5085820;28;20223;-58
2023/10/25 12:03:01;;;;;;;6.67;6.07;;;12.00;99.90;;;;;;5084827;28;20216;-58
2023/10/25 12:05:30;;;;;;;7.07;6.40;;;12.10;99.90;;;;;;5085658;28;20883;-57
2023/10/25 12:07:58;;;;;;;6.10;5.60;;;12.10;99.90;;;;;;5080845;28;20252;-58
2023/10/25 12:10:27;;;;;;;6.93;6.10;;;12.10;99.90;;;;;;5080658;28;20198;-58
2023/10/25 12:12:56;;;;;;;7.07;6.47;;;12.10;99.90;;;;;;5082285;28;20219;-58
2023/10/25 12:15:25;;;;;;;6.17;5.67;;;12.20;99.90;;;;;;5084076;28;20216;-57
2023/10/25 12:17:53;;;;;;;6.80;6.30;;;12.20;99.90;;;;;;5079877;28;20226;-57
2023/10/25 12:20:22;;;;;;;6.87;6.27;;;12.10;99.90;;;;;;5085397;28;20223;-57
2023/10/25 12:22:56;;;;;;;6.37;5.87;;;12.10;99.90;;;;;;5086349;28;20227;-58
2023/10/25 12:25:25;;;;;;;6.30;5.77;;;12.30;99.90;;;;;;5086113;28;20622;-57
2023/10/25 12:27:55;;;;;;;8.80;7.40;;;12.30;99.90;;;;;;5077709;28;20196;-58
2023/10/25 12:30:23;;;;;;;6.70;6.00;;;12.30;99.90;;;;;;5088760;28;20231;-58
2023/10/25 12:32:53;;;;;;;6.20;5.67;;;12.30;99.90;;;;;;5088015;28;20219;-58
2023/10/25 12:35:22;;;;;;;5.70;5.20;;;12.40;99.90;;;;;;5077458;28;20239;-58
2023/10/25 12:37:51;;;;;;;5.57;5.17;;;12.40;99.90;;;;;;5088863;28;20225;-57
2023/10/25 12:40:19;;;;;;;6.17;5.63;;;12.40;99.90;;;;;;5077259;28;20212;-57
2023/10/25 12:42:48;;;;;;;6.00;5.53;;;12.40;99.90;;;;;;5082551;28;20247;-58
2023/10/25 12:45:20;;;;;;;5.87;5.37;;;12.30;99.90;;;;;;5066239;28;20680;-58
2023/10/25 12:47:49;;;;;;;4.93;4.63;;;12.30;99.90;;;;;;5062375;28;20871;-58
2023/10/25 12:50:18;;;;;;;5.77;5.27;;;12.30;99.90;;;;;;5065507;28;20227;-57
2023/10/25 12:52:46;;;;;;;6.30;5.60;;;12.40;99.90;;;;;;5065682;28;20232;-57
2023/10/25 12:55:14;;;;;;;7.23;6.40;;;12.40;99.90;;;;;;5063853;28;20205;-57
2023/10/25 12:57:43;;;;;;;7.93;7.07;;;12.40;99.90;;;;;;5061891;28;20239;-57
2023/10/25 13:00:12;;;;;;;8.60;7.07;;;12.50;99.90;;;;;;5072344;28;20220;-58
2023/10/25 13:02:42;;;;;;;7.40;6.70;;;12.50;99.90;;;;;;5063738;28;20775;-57
2023/10/25 13:05:10;;;;;;;7.73;6.87;;;12.60;99.90;;;;;;5084723;28;20634;-58